Carbondale, IL

4:26 AM CDT on August 30, 2015 (GMT -0500)
Carbondale City Hall | | Change Station
CLOSE
Current Station
Personal Weather Station
Location: Carbondale, IL
Elevation: 430 ft
Nearby Weather Stations

Elev 430 ft 37.73 °N, 89.22 °W | Updated 27 minutes ago

Overcast
Overcast
71.1 °F
Feels Like 71.1 °F
N
3.0
Wind Variable Wind from South
Gusts 6.0 mph

Today
High -- | Low -- °F
--% Chance of Precip.
Yesterday
High -- | Low -- °F
Precip. -- in
6:25 AM 7:29 PM
Waxing Gibbous, 99% visible
Pressure 30.01 in
Visibility 8.0 miles
Clouds Mostly Cloudy 7500 ft
Overcast 12000 ft
Dew Point 67 °F
Humidity 88%
Rainfall 0.05 in
Snow Depth Not available.
UV 0 out of 12
Pollen 10.50 out of 12
Air Quality Not available.
Flu Activity Not available.
METAR KMDH 300852Z AUTO 14003KT 8SM BKN075 OVC120 21/20 A3002 RMK AO2 LTG DSNT NE SLP160 60000 T02110200 56006
Pressure 30.01 in
Visibility 8.0 miles
Clouds Mostly Cloudy 7500 ft
Overcast 12000 ft
Dew Point 67 °F
Humidity 88%
Rainfall 0.05 in
Snow Depth Not available.
UV 0 out of 12
Pollen 10.50 out of 12
Air Quality Not available.
Flu Activity Not available.
METAR KMDH 300852Z AUTO 14003KT 8SM BKN075 OVC120 21/20 A3002 RMK AO2 LTG DSNT NE SLP160 60000 T02110200 56006

10-Day Weather Forecast

×

Almanac

Astronomy

Aug. 30, 2015 Rise Set
Actual Time
Civil Twilight
Nautical Twilight
Astronomical Twilight
Moon
Length of Visible Light
Length of Day
Tomorrow will be .
, % of the Moon is Illuminated

Today's Extremes

State Highs State Lows

Community

WunderPhotos

Upload Photos

1,850,909 photos uploaded!

WunderBlogs® & News

Nearby

Air Quality

  Air Quality AQ Index Pollutant
Not available.

Snow Depth

Station Depth Elevation

Earthquake Activity

City Distance Mag. Time & Date
Minimum magnitude displayed is 2.5.

Coastal Water Temperatures

Place Temperature

Stations

Nearby Weather Stations

Station Location Temp. Windchill Dew Point Humidity Wind Precip. Elev Updated Type